EGBJ

Gloucestershire Airport

Staverton, United Kingdom
METAR EGBJ 171850Z 00000KT 9999 FEW025 14/10 Q1023
Observed Flight Rules
Oct-17 @ 18:50 UTC (6 hours ago) Visual Flight Rules
Visibility Clouds
10,000+ meters
  • Few at 2,500' AGL
Temperatures Readings
Current 14°C / 57°F
Dewpoint 10°C / 50°F
Humidity 77%
Altimeter 30.21" Hg
Pressure 1023 hPa
Elevation 29
METAR EGBJ 171850Z 00000KT 9999 FEW025 14/10 Q1023
Observed Flight Rules
Oct-17 @ 18:50 UTC
(6 hours ago)
VFR
Clouds
  • Few at 2,500' AGL
Temperature Dewpoint
14°C / 57°F 10°C / 50°F
Humidity Altimeter Pressure
77% 30.21" Hg 1023 hPa